Time;durP1;ratioP1;P1;durP2;ratioP2;P2;SDS_P1;SDS_P2;PMS_P1;PMS_P2;Temp;Humidity;BMP_temperature;BMP_pressure;BME280_temperature;BME280_humidity;BME280_pressure;Samples;Min_cycle;Max_cycle;Signal;HPM_P1;HPM_P2
2022/04/01 00:00:38;;;;;;;9.13;8.23;;;;;;;10.41;100.00;97300.00;6197450;23;20017;-82
2022/04/01 00:03:05;;;;;;;9.15;8.25;;;;;;;10.43;100.00;97303.25;6189598;23;20033;-82
2022/04/01 00:05:33;;;;;;;11.13;8.60;;;;;;;10.40;100.00;97299.19;6189082;23;20023;-84
2022/04/01 00:07:59;;;;;;;8.60;7.80;;;;;;;10.38;100.00;97300.38;6186216;23;20020;-83
2022/04/01 00:10:26;;;;;;;9.43;8.23;;;;;;;10.36;100.00;97297.16;6185765;23;20108;-84
2022/04/01 00:12:51;;;;;;;8.93;7.63;;;;;;;10.33;100.00;97297.53;6185174;23;20052;-84
2022/04/01 00:15:17;;;;;;;8.73;6.78;;;;;;;10.26;100.00;97293.03;6184913;23;20362;-84
2022/04/01 00:17:43;;;;;;;6.90;6.18;;;;;;;10.21;100.00;97292.81;6160087;23;20409;-84
2022/04/01 00:20:13;;;;;;;7.00;6.32;;;;;;;10.15;100.00;97290.91;6158904;23;20089;-84
2022/04/01 00:22:40;;;;;;;9.00;6.45;;;;;;;10.06;100.00;97276.28;6183858;23;20021;-84
2022/04/01 00:25:06;;;;;;;5.78;5.30;;;;;;;9.99;100.00;97258.81;6186084;23;20048;-83
2022/04/01 00:27:32;;;;;;;5.82;4.82;;;;;;;9.90;100.00;97244.16;6163727;23;20016;-83
2022/04/01 00:29:58;;;;;;;5.40;4.88;;;;;;;9.78;100.00;97244.69;6164538;23;20009;-83
2022/04/01 00:32:24;;;;;;;5.25;4.10;;;;;;;9.69;100.00;97263.50;6205555;23;20016;-84
2022/04/01 00:34:49;;;;;;;4.95;4.45;;;;;;;9.62;100.00;97288.97;6186688;23;20000;-83
2022/04/01 00:43:04;;;;;;;6.72;3.40;;;;;;;9.67;100.00;97283.94;6216652;22;20028;-83
2022/04/01 00:45:29;;;;;;;3.83;3.53;;;;;;;9.69;100.00;97279.28;6114489;23;20026;-83
2022/04/01 00:48:01;;;;;;;4.07;3.40;;;;;;;9.74;100.00;97284.78;6116886;23;20066;-84
2022/04/01 00:50:32;;;;;;;4.38;3.22;;;;;;;9.76;100.00;97288.06;6145278;23;20024;-83
2022/04/01 00:52:58;;;;;;;3.38;3.15;;;;;;;9.78;100.00;97293.94;6121218;23;20006;-83
2022/04/01 00:55:25;;;;;;;3.72;3.42;;;;;;;9.69;100.00;97300.34;6140963;23;20187;-85
2022/04/01 00:57:51;;;;;;;5.10;3.47;;;;;;;9.61;100.00;97303.13;6123110;23;20045;-82
2022/04/01 01:00:17;;;;;;;4.32;3.83;;;;;;;9.53;100.00;97295.38;6122347;23;20097;-83
2022/04/01 01:06:18;;;;;;;3.33;3.13;;;;;;;9.45;100.00;97294.50;6213810;23;20330;-83
2022/04/01 01:08:44;;;;;;;4.22;3.30;;;;;;;9.37;100.00;97297.28;6214600;23;20012;-82
2022/04/01 01:11:10;;;;;;;3.75;2.90;;;;;;;9.32;100.00;97289.13;6188489;23;20445;-83
2022/04/01 01:13:36;;;;;;;4.20;3.50;;;;;;;9.29;100.00;97299.25;6217088;23;20070;-83
2022/04/01 01:16:03;;;;;;;4.45;2.72;;;;;;;9.25;100.00;97293.53;6190161;23;20082;-82
2022/04/01 01:18:29;;;;;;;5.38;3.60;;;;;;;9.26;100.00;97278.53;6212626;23;20109;-83
2022/04/01 01:20:54;;;;;;;4.22;2.70;;;;;;;9.26;100.00;97276.72;6213144;23;20066;-84
2022/04/01 01:23:26;;;;;;;3.00;2.70;;;;;;;9.24;100.00;97281.38;6186450;23;20005;-82
2022/04/01 01:25:52;;;;;;;3.05;2.85;;;;;;;9.21;100.00;97279.13;6187876;23;20020;-83
2022/04/01 01:28:17;;;;;;;5.15;3.00;;;;;;;9.24;100.00;97273.50;6188494;23;20084;-81
2022/04/01 01:30:44;;;;;;;3.80;2.70;;;;;;;9.21;100.00;97265.16;6163474;23;20017;-82
2022/04/01 01:33:09;;;;;;;2.83;2.63;;;;;;;9.16;100.00;97265.72;6163814;23;20126;-83
2022/04/01 01:35:35;;;;;;;3.63;3.00;;;;;;;9.13;100.00;97252.94;6163129;23;20013;-82
2022/04/01 01:38:01;;;;;;;2.75;2.50;;;;;;;9.15;100.00;97247.50;6188208;23;20096;-82
2022/04/01 01:40:27;;;;;;;2.70;2.50;;;;;;;9.19;100.00;97252.16;6187801;23;20107;-84
2022/04/01 01:42:53;;;;;;;3.65;2.65;;;;;;;9.25;100.00;97247.97;6214751;23;20013;-82
2022/04/01 01:45:19;;;;;;;3.15;2.60;;;;;;;9.28;100.00;97243.16;6163065;23;20464;-82
2022/04/01 01:47:45;;;;;;;3.90;2.40;;;;;;;9.30;100.00;97238.53;6214439;23;20062;-82
2022/04/01 01:55:40;;;;;;;3.70;2.30;;;;;;;9.29;100.00;97231.63;6214844;23;20046;-82
2022/04/01 01:58:07;;;;;;;2.67;2.05;;;;;;;9.30;100.00;97230.63;6163459;23;20009;-83
2022/04/01 02:00:34;;;;;;;3.30;3.00;;;;;;;9.31;100.00;97232.22;6188210;23;20028;-83
2022/04/01 02:03:00;;;;;;;3.05;2.85;;;;;;;9.31;100.00;97226.97;6214855;23;20043;-83
2022/04/01 02:05:25;;;;;;;2.90;2.50;;;;;;;9.28;100.00;97224.72;6162621;23;20044;-82
2022/04/01 02:07:53;;;;;;;4.53;2.35;;;;;;;9.25;100.00;97211.13;6188173;23;20020;-84
2022/04/01 02:10:19;;;;;;;2.83;2.63;;;;;;;9.24;100.00;97212.16;6187756;23;20497;-83
2022/04/01 02:12:45;;;;;;;2.40;1.90;;;;;;;9.20;100.00;97210.88;6187620;23;20708;-82
2022/04/01 02:15:11;;;;;;;2.95;2.33;;;;;;;9.20;100.00;97195.91;6188537;23;20013;-82
2022/04/01 02:17:38;;;;;;;3.60;2.50;;;;;;;9.20;100.00;97201.19;6166498;23;20031;-84
2022/04/01 02:20:09;;;;;;;2.88;2.67;;;;;;;9.22;100.00;97196.56;6219342;23;20031;-82
2022/04/01 02:22:38;;;;;;;2.40;2.20;;;;;;;9.21;100.00;97197.53;6188492;23;20009;-83
2022/04/01 02:25:07;;;;;;;2.85;2.58;;;;;;;9.24;100.00;97202.44;6163156;23;20036;-83
2022/04/01 02:27:35;;;;;;;2.70;2.33;;;;;;;9.30;100.00;97196.41;6187627;23;20028;-82
2022/04/01 02:30:01;;;;;;;2.20;2.00;;;;;;;9.34;100.00;97191.56;6215019;23;20075;-83
2022/04/01 02:32:56;;;;;;;4.20;2.47;;;;;;;9.31;100.00;97187.50;6194080;23;20021;-83
2022/04/01 02:35:42;;;;;;;2.42;2.22;;;;;;;9.29;100.00;97188.72;6167052;23;20090;-82
2022/04/01 02:38:09;;;;;;;3.88;2.63;;;;;;;9.27;100.00;97186.25;6163007;23;20036;-83
2022/04/01 02:40:34;;;;;;;3.05;2.72;;;;;;;9.26;100.00;97179.38;6187676;23;20041;-83
2022/04/01 02:43:00;;;;;;;2.83;2.63;;;;;;;9.25;100.00;97183.00;6163322;23;20001;-83
2022/04/01 02:45:26;;;;;;;2.50;2.33;;;;;;;9.22;100.00;97182.56;6187459;23;20095;-83
2022/04/01 02:47:53;;;;;;;4.88;2.88;;;;;;;9.18;100.00;97176.06;6188038;23;20020;-82
2022/04/01 02:50:20;;;;;;;3.05;2.80;;;;;;;9.15;100.00;97179.91;6186959;23;20307;-82
2022/04/01 02:52:45;;;;;;;3.90;2.90;;;;;;;9.11;100.00;97173.41;6213923;23;20742;-83
2022/04/01 02:55:11;;;;;;;6.80;3.45;;;;;;;9.06;100.00;97183.69;6187599;23;20005;-83
2022/04/01 02:57:37;;;;;;;3.88;3.58;;;;;;;9.02;100.00;97182.41;6162417;23;20021;-83
2022/04/01 03:00:09;;;;;;;4.38;3.97;;;;;;;8.99;100.00;97183.63;6188802;23;20019;-82
2022/04/01 03:02:37;;;;;;;5.70;4.53;;;;;;;8.95;100.00;97198.13;6164248;23;20021;-82
2022/04/01 03:05:04;;;;;;;5.47;4.45;;;;;;;8.92;100.00;97195.09;6189054;23;20111;-83
2022/04/01 03:07:30;;;;;;;5.30;4.80;;;;;;;8.95;100.00;97197.34;6189135;23;20441;-83
2022/04/01 03:09:56;;;;;;;7.30;5.28;;;;;;;8.90;100.00;97194.44;6164688;23;20017;-83
2022/04/01 03:12:25;;;;;;;8.13;6.07;;;;;;;8.80;100.00;97193.97;6203210;23;20020;-81
2022/04/01 03:15:09;;;;;;;5.80;5.30;;;;;;;8.78;100.00;97195.97;6213373;23;20009;-82
2022/04/01 03:18:01;;;;;;;6.97;5.93;;;;;;;8.76;100.00;97195.34;6236670;23;20072;-83
2022/04/01 03:20:37;;;;;;;5.78;5.38;;;;;;;8.78;100.00;97201.22;6211214;23;20012;-83
2022/04/01 03:23:04;;;;;;;6.47;5.88;;;;;;;8.72;100.00;97191.50;6191564;23;20091;-83
2022/04/01 03:40:31;;;;;;;7.07;6.45;;;;;;;8.51;100.00;97197.53;6215039;23;20027;-82
2022/04/01 03:43:23;;;;;;;7.25;6.55;;;;;;;8.44;100.00;97192.22;6213986;23;20023;-83
2022/04/01 03:45:54;;;;;;;9.25;6.63;;;;;;;8.41;100.00;97183.91;6188198;23;20023;-83
2022/04/01 03:48:47;;;;;;;7.28;6.30;;;;;;;8.41;100.00;97187.34;6194167;23;20012;-83
2022/04/01 03:51:19;;;;;;;6.60;5.93;;;;;;;8.48;100.00;97182.94;6210983;23;20523;-80
2022/04/01 03:53:57;;;;;;;8.90;6.55;;;;;;;8.47;100.00;97189.22;6208718;23;20012;-82
2022/04/01 03:56:37;;;;;;;7.60;6.70;;;;;;;8.46;100.00;97187.59;6191131;23;20016;-82
2022/04/01 03:59:41;;;;;;;6.82;6.22;;;;;;;8.42;100.00;97186.34;6158262;23;20036;-83
2022/04/01 04:02:26;;;;;;;8.60;7.03;;;;;;;8.43;100.00;97187.13;6193889;23;20055;-83
2022/04/01 04:04:56;;;;;;;6.70;6.07;;;;;;;8.37;100.00;97188.69;6164729;23;20017;-82
2022/04/01 04:07:25;;;;;;;8.27;6.38;;;;;;;8.38;100.00;97185.06;6164776;23;20012;-82
2022/04/01 04:09:52;;;;;;;7.88;7.18;;;;;;;8.33;100.00;97187.44;6188052;23;20005;-81
2022/04/01 04:12:20;;;;;;;7.32;6.63;;;;;;;8.34;100.00;97186.44;6187912;23;20005;-82
2022/04/01 04:14:53;;;;;;;8.13;6.53;;;;;;;8.38;100.00;97197.41;6212854;23;20005;-82
2022/04/01 04:17:37;;;;;;;7.28;6.57;;;;;;;8.38;100.00;97192.97;6163576;23;20013;-83
2022/04/01 04:20:32;;;;;;;10.57;7.35;;;;;;;8.38;100.00;97185.06;6201299;23;20073;-78
2022/04/01 04:23:11;;;;;;;9.55;7.35;;;;;;;8.39;100.00;97185.88;6187030;23;20012;-82
2022/04/01 04:25:39;;;;;;;8.55;6.70;;;;;;;8.42;100.00;97186.34;6209530;23;20054;-84
2022/04/01 04:28:12;;;;;;;7.22;6.53;;;;;;;8.39;100.00;97176.19;6237313;23;20027;-83
2022/04/01 04:30:49;;;;;;;7.78;6.97;;;;;;;8.40;100.00;97183.09;6201050;23;20096;-82
2022/04/01 04:33:28;;;;;;;7.70;6.88;;;;;;;8.43;100.00;97187.94;6189888;23;20150;-84
2022/04/01 04:35:53;;;;;;;7.65;6.95;;;;;;;8.44;100.00;97188.75;6214945;23;20023;-81
2022/04/01 04:38:29;;;;;;;8.80;7.45;;;;;;;8.44;100.00;97184.31;6187936;23;20394;-82
2022/04/01 04:40:56;;;;;;;8.82;8.02;;;;;;;8.40;100.00;97180.44;6188225;23;20016;-82
2022/04/01 04:43:25;;;;;;;8.45;7.40;;;;;;;8.42;100.00;97175.84;6200031;23;20000;-82
2022/04/01 04:45:58;;;;;;;8.73;7.90;;;;;;;8.41;100.00;97184.72;6236628;23;20020;-82
2022/04/01 04:48:27;;;;;;;10.75;7.85;;;;;;;8.41;100.00;97184.72;6209389;23;20017;-83
2022/04/01 04:50:58;;;;;;;8.25;7.45;;;;;;;8.37;100.00;97188.69;6235094;23;20032;-83
2022/04/01 04:53:27;;;;;;;7.60;6.90;;;;;;;8.36;100.00;97181.03;6210433;23;20020;-82
2022/04/01 04:55:53;;;;;;;7.70;6.97;;;;;;;8.38;100.00;97177.19;6209991;23;20480;-82
2022/04/01 04:58:26;;;;;;;8.38;7.57;;;;;;;8.34;100.00;97188.25;6188566;23;20077;-82
2022/04/01 05:01:03;;;;;;;7.65;6.93;;;;;;;8.32;100.00;97183.19;6187620;23;20013;-81
2022/04/01 05:04:07;;;;;;;7.65;6.95;;;;;;;8.32;100.00;97185.81;6186970;23;20035;-82
2022/04/01 05:06:39;;;;;;;8.48;6.45;;;;;;;8.26;100.00;97181.28;6186145;23;20016;-82
2022/04/01 05:09:25;;;;;;;8.00;7.28;;;;;;;8.24;100.00;97185.91;6213040;23;20393;-81
2022/04/01 05:12:12;;;;;;;8.63;6.65;;;;;;;8.23;100.00;97186.91;6186280;23;20092;-83
2022/04/01 05:15:01;;;;;;;7.30;6.53;;;;;;;8.25;100.00;97194.63;6175266;23;20441;-81
2022/04/01 05:17:36;;;;;;;8.73;6.35;;;;;;;8.25;100.00;97199.88;6186019;23;20013;-81
2022/04/01 05:20:15;;;;;;;7.00;6.25;;;;;;;8.14;100.00;97198.50;6213334;23;20074;-82
2022/04/01 05:23:02;;;;;;;8.60;6.50;;;;;;;8.02;100.00;97202.59;6186146;23;20097;-83
2022/04/01 05:25:34;;;;;;;7.68;6.22;;;;;;;8.00;100.00;97207.25;6185768;23;20429;-82
2022/04/01 05:28:22;;;;;;;7.78;6.07;;;;;;;8.02;100.00;97205.22;6186994;23;20016;-82
2022/04/01 05:31:04;;;;;;;7.07;6.47;;;;;;;8.04;100.00;97205.88;6187550;23;20016;-84
2022/04/01 05:33:41;;;;;;;7.55;6.80;;;;;;;8.10;100.00;97202.50;6186478;23;20091;-83
2022/04/01 05:36:10;;;;;;;6.60;6.00;;;;;;;8.11;100.00;97214.66;6164375;23;20319;-82
2022/04/01 05:38:36;;;;;;;5.75;5.22;;;;;;;8.07;100.00;97208.94;6185627;23;20020;-81
2022/04/01 05:41:02;;;;;;;5.57;5.05;;;;;;;8.02;100.00;97211.31;6186143;23;20088;-84
2022/04/01 05:43:29;;;;;;;6.40;4.78;;;;;;;7.96;100.00;97209.41;6185389;23;20019;-83
2022/04/01 05:46:29;;;;;;;7.20;5.10;;;;;;;7.93;100.00;97208.97;6185893;23;20017;-82
2022/04/01 05:49:00;;;;;;;5.22;4.72;;;;;;;7.91;100.00;97200.44;6161815;23;20020;-83
2022/04/01 05:51:29;;;;;;;7.10;4.85;;;;;;;7.92;100.00;97209.97;6185160;23;20024;-81
2022/04/01 05:53:56;;;;;;;4.70;4.30;;;;;;;7.88;100.00;97212.16;6185354;23;20430;-82
2022/04/01 05:56:22;;;;;;;4.85;4.35;;;;;;;7.93;100.00;97216.84;6212178;23;20009;-82
2022/04/01 06:10:25;;;;;;;5.20;4.68;;;;;;;8.38;100.00;97242.88;6208023;23;20039;-79
2022/04/01 06:14:05;;;;;;;6.38;5.78;;;;;;;8.52;100.00;97239.41;6132968;23;20136;-84
2022/04/01 06:17:23;;;;;;;7.18;6.40;;;;;;;8.56;100.00;97235.41;6162692;23;20075;-84
2022/04/01 06:19:51;;;;;;;6.85;6.18;;;;;;;8.60;100.00;97236.66;6185855;23;20013;-84
2022/04/01 06:22:20;;;;;;;8.25;7.22;;;;;;;8.71;100.00;97242.44;6167719;23;20013;-84
2022/04/01 06:25:13;;;;;;;8.43;7.05;;;;;;;8.78;100.00;97238.03;6186163;23;20013;-85
2022/04/01 06:27:45;;;;;;;8.02;7.32;;;;;;;8.86;100.00;97237.91;6135532;23;20013;-88
2022/04/01 06:30:15;;;;;;;7.72;6.93;;;;;;;8.97;100.00;97232.16;6159539;23;20430;-84
2022/04/01 06:33:01;;;;;;;9.05;7.78;;;;;;;9.17;100.00;97237.59;6156349;23;20512;-86
2022/04/01 06:36:00;;;;;;;9.20;7.30;;;;;;;9.28;100.00;97235.25;6178052;23;20347;-87
2022/04/01 06:38:48;;;;;;;7.70;7.00;;;;;;;9.42;100.00;97234.34;6160093;23;20005;-82
2022/04/01 06:41:23;;;;;;;8.60;7.18;;;;;;;9.57;100.00;97230.81;6160275;23;20103;-81
2022/04/01 06:47:02;;;;;;;9.60;7.35;;;;;;;9.68;100.00;97231.06;6245912;23;20115;-82
2022/04/01 06:50:24;;;;;;;8.48;7.50;;;;;;;9.50;100.00;97227.31;6232323;23;20020;-82
2022/04/01 06:53:26;;;;;;;8.10;7.40;;;;;;;9.32;100.00;97233.88;6280952;22;20180;-82
2022/04/01 06:56:11;;;;;;;11.23;8.13;;;;;;;9.32;100.00;97239.13;6234175;23;20074;-85
2022/04/01 06:58:37;;;;;;;10.23;8.90;;;;;;;9.37;100.00;97231.47;6255278;23;20011;-83
2022/04/01 07:01:04;;;;;;;8.68;7.88;;;;;;;9.45;100.00;97241.03;6247733;23;20016;-81
2022/04/01 07:03:30;;;;;;;12.60;8.48;;;;;;;9.52;100.00;97230.56;6247776;23;20048;-87
2022/04/01 07:06:02;;;;;;;9.55;8.57;;;;;;;9.58;100.00;97235.06;6246897;23;20114;-83
2022/04/01 07:08:28;;;;;;;11.32;8.18;;;;;;;9.67;100.00;97239.16;6247132;23;20012;-83
2022/04/01 07:10:53;;;;;;;9.15;8.25;;;;;;;9.69;100.00;97234.53;6220227;23;20418;-83
2022/04/01 07:13:19;;;;;;;14.43;9.32;;;;;;;9.71;100.00;97240.41;6219463;23;20066;-81
2022/04/01 07:15:45;;;;;;;11.02;9.35;;;;;;;9.72;100.00;97242.06;6218944;23;20007;-85
2022/04/01 07:18:11;;;;;;;10.00;9.00;;;;;;;9.77;100.00;97244.91;6246315;23;20020;-88
2022/04/01 07:20:36;;;;;;;9.80;8.77;;;;;;;9.85;100.00;97252.66;6218827;23;20491;-81
2022/04/01 07:23:03;;;;;;;9.82;8.32;;;;;;;9.93;100.00;97252.50;6217757;23;20012;-84
2022/04/01 07:25:29;;;;;;;10.45;8.70;;;;;;;10.00;100.00;97248.09;6218856;23;20004;-81
2022/04/01 07:27:54;;;;;;;9.55;8.18;;;;;;;10.02;100.00;97261.03;6245838;23;20712;-83
2022/04/01 07:30:20;;;;;;;9.25;8.35;;;;;;;10.02;100.00;97266.31;6214846;23;20019;-87
2022/04/01 07:32:47;;;;;;;9.60;8.63;;;;;;;10.02;100.00;97261.84;6242384;23;20024;-82
2022/04/01 07:35:14;;;;;;;8.70;7.80;;;;;;;10.03;100.00;97260.84;6242314;23;20065;-82
2022/04/01 07:37:42;;;;;;;9.27;8.40;;;;;;;10.07;100.00;97266.56;6241710;23;20091;-82
2022/04/01 07:40:10;;;;;;;9.18;8.27;;;;;;;10.07;100.00;97262.09;6216470;23;20032;-85
2022/04/01 07:42:36;;;;;;;10.10;8.27;;;;;;;10.04;100.00;97262.47;6217384;23;20571;-82
2022/04/01 07:45:05;;;;;;;11.77;8.85;;;;;;;10.09;100.00;97272.44;6233529;23;20043;-84
2022/04/01 07:47:34;;;;;;;;;;;;;;;10.11;100.00;97268.59;6233785;23;20025;-83
2022/04/01 07:50:04;;;;;;;;;;;;;;;10.13;100.00;97261.31;6240012;22;19900;-87
2022/04/01 07:52:29;;;;;;;;;;;;;;;10.21;100.00;97261.19;6239691;23;19926;-85
2022/04/01 07:54:55;;;;;;;;;;;;;;;10.42;100.00;97262.09;6222748;23;19908;-83
2022/04/01 07:57:20;;;;;;;;;;;;;;;10.67;100.00;97253.44;6216863;23;20014;-89
2022/04/01 07:59:46;;;;;;;;;;;;;;;10.86;100.00;97265.03;6211450;23;19915;-83
2022/04/01 08:02:13;;;;;;;;;;;;;;;11.08;100.00;97266.50;6213145;23;19923;-81
2022/04/01 08:04:39;;;;;;;;;;;;;;;11.15;100.00;97261.22;6214466;23;19959;-82
2022/04/01 08:07:04;;;;;;;;;;;;;;;11.24;100.00;97269.78;6214966;23;19912;-81
2022/04/01 08:09:30;;;;;;;;;;;;;;;11.36;100.00;97271.63;6213265;23;19912;-75
2022/04/01 08:11:55;;;;;;;;;;;;;;;11.48;100.00;97277.91;6211829;23;19912;-76
2022/04/01 08:14:21;;;;;;;;;;;;;;;11.56;100.00;97284.78;6213638;23;20245;-82
2022/04/01 08:16:47;;;;;;;;;;;;;;;11.66;100.00;97279.94;6227146;23;20333;-79
2022/04/01 08:19:12;;;;;;;;;;;;;;;11.76;100.00;97285.63;6229574;23;19911;-80
2022/04/01 08:21:38;;;;;;;;;;;;;;;11.94;100.00;97281.53;6219967;23;20248;-78
2022/04/01 08:24:04;;;;;;;;;;;;;;;12.06;100.00;97285.19;6214377;23;19918;-79
2022/04/01 08:26:29;;;;;;;;;;;;;;;12.10;100.00;97294.31;6220243;23;20275;-79
2022/04/01 08:28:54;;;;;;;;;;;;;;;12.08;100.00;97288.41;6216505;23;19911;-80
2022/04/01 08:31:20;;;;;;;;;;;;;;;12.17;100.00;97290.63;6239776;23;19947;-81
2022/04/01 08:33:47;;;;;;;;;;;;;;;12.38;100.00;97297.47;6217358;23;19916;-80
2022/04/01 08:36:13;;;;;;;;;;;;;;;12.59;100.00;97291.91;6213887;23;20333;-79
2022/04/01 08:38:40;;;;;;;;;;;;;;;12.66;100.00;97287.38;6215501;23;19916;-82
2022/04/01 08:41:06;;;;;;;;;;;;;;;12.64;100.00;97289.44;6240199;23;19912;-83
2022/04/01 08:43:33;;;;;;;;;;;;;;;12.63;100.00;97293.09;6191851;23;19916;-78
2022/04/01 08:46:00;;;;;;;;;;;;;;;12.67;100.00;97289.00;6233821;23;19934;-82
2022/04/01 08:48:27;;;;;;;;;;;;;;;12.75;100.00;97284.50;6219828;23;19911;-82
2022/04/01 08:50:54;;;;;;;;;;;;;;;12.85;100.00;97282.19;6219951;23;20233;-83
2022/04/01 08:53:20;;;;;;;;;;;;;;;12.98;100.00;97279.47;6247452;23;19927;-83
2022/04/01 08:55:47;;;;;;;;;;;;;;;13.03;100.00;97282.31;6245089;23;19987;-86
2022/04/01 08:58:13;;;;;;;;;;;;;;;12.99;100.00;97281.13;6248736;23;19912;-83
2022/04/01 09:00:38;;;;;;;;;;;;;;;13.05;100.00;97285.56;6244548;23;20415;-80
2022/04/01 09:05:56;;;;;;;12.05;7.60;;;;;;;13.28;100.00;97285.84;6212477;22;19934;-85
2022/04/01 09:08:37;;;;;;;10.63;7.85;;;;;;;13.39;100.00;97287.78;6209703;23;20148;-83
2022/04/01 09:11:09;;;;;;;;;;;;;;;13.39;100.00;97282.50;6215571;23;20085;-80
2022/04/01 09:13:50;;;;;;;;;;;;;;;13.47;100.00;97274.28;6189031;23;19919;-82
2022/04/01 09:16:31;;;;;;;;;;;;;;;13.51;100.00;97275.47;6163401;23;19991;-81
2022/04/01 09:18:57;;;;;;;;;;;;;;;13.57;100.00;97278.28;6162276;23;19916;-80
2022/04/01 09:21:27;;;;;;;;;;;;;;;13.59;100.00;97282.34;6212268;23;19929;-84
2022/04/01 09:23:52;;;;;;;;;;;;;;;13.60;100.00;97277.88;6163913;23;19947;-80
2022/04/01 09:26:21;;;;;;;;;;;;;;;13.68;100.00;97280.22;6189239;23;20344;-84
2022/04/01 09:28:46;;;;;;;;;;;;;;;13.70;98.85;97276.34;6164186;23;19916;-82
2022/04/01 09:31:14;;;;;;;;;;;;;;;13.74;96.95;97282.00;6215004;23;19918;-86
2022/04/01 09:33:39;;;;;;;;;;;;;;;13.83;97.08;97268.25;6189751;23;20075;-86
2022/04/01 09:36:06;;;;;;;;;;;;;;;13.94;96.19;97269.38;6191398;23;19912;-84
2022/04/01 10:12:17;;;;;;;;;;;;;;;14.54;94.31;97243.03;6216335;23;19918;-84
2022/04/01 10:21:32;;;;;;;;;;;;;;;14.64;91.62;97237.97;6226014;23;19899;-83
2022/04/01 10:46:19;;;;;;;;;;;;;;;15.03;75.92;97204.72;6130997;23;19919;-86
2022/04/01 10:52:22;;;;;;;;;;;;;;;15.13;78.52;97194.38;6128266;23;19923;-84
2022/04/01 10:54:50;;;;;;;;;;;;;;;15.05;74.21;97184.88;6118511;23;19913;-84
2022/04/01 10:57:26;;;;;;;;;;;;;;;15.14;77.34;97186.16;6151600;23;19916;-85
2022/04/01 10:59:54;;;;;;;;;;;;;;;15.36;79.09;97172.34;6155334;23;19920;-86
2022/04/01 11:02:20;;;;;;;;;;;;;;;15.45;76.44;97174.41;6128616;23;19917;-85
2022/04/01 11:04:46;;;;;;;;;;;;;;;15.60;74.49;97176.66;6154013;23;20369;-86
2022/04/01 11:07:33;;;;;;;;;;;;;;;15.69;75.00;97172.59;6154378;23;19916;-86
2022/04/01 11:10:00;;;;;;;;;;;;;;;15.70;75.41;97166.22;6102485;23;20404;-82
2022/04/01 11:12:27;;;;;;;;;;;;;;;15.68;73.71;97155.00;6126384;23;19952;-86
2022/04/01 11:17:35;;;;;;;;;;;;;;;15.70;75.13;97146.81;6151088;23;19916;-82
2022/04/01 11:20:27;;;;;;;;;;;;;;;15.84;74.61;97149.00;6178868;22;19943;-84
2022/04/01 11:39:15;;;;;;;;;;;;;;;15.06;68.46;97135.25;6204100;23;19927;-83
2022/04/01 12:25:01;;;;;;;6.15;2.90;;;;;;;13.20;99.22;97082.19;6155697;23;20080;-85
2022/04/01 13:50:38;;;;;;;4.90;1.92;;;;;;;23.61;45.03;96980.00;6236496;22;20183;-84
2022/04/01 14:27:17;;;;;;;2.05;1.45;;;;;;;25.64;21.78;97019.91;6185945;23;20016;-88
2022/04/01 14:34:14;;;;;;;4.43;1.70;;;;;;;23.80;24.55;97006.91;6184266;23;20053;-85
2022/04/01 14:40:36;;;;;;;2.50;1.83;;;;;;;19.28;31.56;97005.28;6146075;23;20012;-82
2022/04/01 14:49:30;;;;;;;3.53;1.77;;;;;;;16.37;36.21;97022.81;6215301;23;20079;-78
2022/04/01 14:52:00;;;;;;;4.10;2.08;;;;;;;15.86;37.17;97027.22;6215366;23;20120;-84
2022/04/01 14:54:48;;;;;;;2.47;1.63;;;;;;;15.46;38.04;97031.72;6215884;23;20015;-85
2022/04/01 14:57:37;;;;;;;2.42;1.70;;;;;;;15.01;39.75;97021.75;6064984;23;20019;-85
2022/04/01 15:01:06;;;;;;;3.20;2.25;;;;;;;14.75;41.10;97043.44;6066264;23;20029;-81
2022/04/01 15:04:09;;;;;;;4.53;1.73;;;;;;;14.53;42.66;97034.41;5976951;23;20023;-75
2022/04/01 15:11:40;;;;;;;3.17;1.88;;;;;;;14.28;43.94;97016.78;5901688;24;20049;-79
2022/04/01 15:18:50;;;;;;;4.50;1.83;;;;;;;13.90;43.97;97024.31;5728586;25;20026;-85
2022/04/01 15:21:37;;;;;;;3.25;2.38;;;;;;;13.73;44.52;97018.00;5714789;25;20025;-78
2022/04/01 15:24:37;;;;;;;2.85;2.10;;;;;;;13.64;47.00;97029.94;5712853;25;20047;-80
2022/04/01 15:27:03;;;;;;;4.00;2.10;;;;;;;13.47;47.64;97017.31;5712243;25;20039;-83
2022/04/01 15:29:30;;;;;;;4.47;1.90;;;;;;;13.43;46.19;97018.75;5714858;25;20029;-83
2022/04/01 15:31:57;;;;;;;2.33;1.88;;;;;;;13.32;46.59;97016.88;5721724;25;20031;-82
2022/04/01 15:34:22;;;;;;;2.72;1.60;;;;;;;13.31;47.51;97017.09;5726082;24;20095;-81
2022/04/01 15:36:49;;;;;;;6.22;2.20;;;;;;;13.24;45.62;97024.31;5832937;24;20132;-81
2022/04/01 15:39:21;;;;;;;10.63;3.25;;;;;;;13.21;44.86;97022.91;5838785;24;20030;-84
2022/04/01 15:41:52;;;;;;;3.92;1.70;;;;;;;13.10;45.52;97024.41;5865416;24;20031;-80
2022/04/01 15:44:24;;;;;;;3.13;1.77;;;;;;;13.06;45.78;97019.78;5863604;24;20010;-81
2022/04/01 15:46:50;;;;;;;2.60;1.52;;;;;;;13.02;46.19;97021.22;5898699;24;20502;-85
2022/04/01 15:49:21;;;;;;;3.80;1.80;;;;;;;12.98;44.24;97018.22;5983324;24;20009;-83
2022/04/01 15:51:47;;;;;;;3.10;1.67;;;;;;;12.92;44.60;97034.16;6047828;23;20058;-84
2022/04/01 15:54:13;;;;;;;1.67;1.55;;;;;;;12.84;45.00;97034.47;6111430;23;20079;-84
2022/04/01 15:56:39;;;;;;;3.60;1.50;;;;;;;12.82;46.88;97018.00;6217572;23;20012;-85
2022/04/01 15:59:07;;;;;;;2.75;2.20;;;;;;;12.73;47.42;97018.25;6216256;23;20382;-82
2022/04/01 16:01:42;;;;;;;4.35;1.65;;;;;;;12.66;48.48;97020.16;6215256;23;20064;-84
2022/04/01 16:04:21;;;;;;;2.70;1.70;;;;;;;12.58;48.47;97023.09;6163007;23;20038;-85
2022/04/01 16:50:58;;;;;;;3.58;1.55;;;;;;;11.96;50.03;97078.66;6095306;23;20098;-84
2022/04/01 18:00:02;;;;;;;2.60;1.60;;;;;;;10.33;60.47;97219.25;6202788;22;20031;-83
2022/04/01 18:02:38;;;;;;;7.60;2.22;;;;;;;10.29;59.61;97233.03;6235881;23;20013;-84
2022/04/01 18:05:04;;;;;;;2.17;1.70;;;;;;;10.19;60.04;97239.47;6216394;23;20009;-85
2022/04/01 18:07:37;;;;;;;5.25;1.80;;;;;;;10.15;60.90;97247.94;6188028;23;20016;-85
2022/04/01 18:10:04;;;;;;;3.70;1.50;;;;;;;10.08;61.37;97242.63;6215509;23;20016;-85
2022/04/01 18:12:35;;;;;;;4.10;1.80;;;;;;;10.01;61.01;97247.06;6214619;23;20016;-83
2022/04/01 18:15:05;;;;;;;9.25;1.95;;;;;;;9.94;61.32;97243.59;6214616;23;20311;-85
2022/04/01 18:17:33;;;;;;;4.30;1.85;;;;;;;9.89;61.40;97248.63;6217020;23;20068;-84
2022/04/01 18:20:00;;;;;;;3.65;1.75;;;;;;;9.88;61.65;97254.09;6162635;23;20020;-84
2022/04/01 18:22:26;;;;;;;5.03;1.80;;;;;;;9.84;61.63;97261.53;6218303;23;20442;-85
2022/04/01 18:25:11;;;;;;;6.65;2.40;;;;;;;9.80;62.23;97265.59;6189429;23;20024;-82
2022/04/01 18:28:04;;;;;;;6.63;1.75;;;;;;;9.77;62.21;97266.00;6188022;23;20337;-82
2022/04/01 18:30:35;;;;;;;3.58;1.50;;;;;;;9.73;62.25;97275.25;6213553;23;20061;-82
2022/04/01 18:33:24;;;;;;;2.42;1.70;;;;;;;9.70;61.95;97280.94;6213781;23;20103;-82
2022/04/01 18:35:51;;;;;;;2.42;1.58;;;;;;;9.66;61.82;97285.75;6214186;23;20009;-83
2022/04/01 18:38:23;;;;;;;5.38;1.88;;;;;;;9.65;62.06;97284.13;6214499;23;20051;-86
2022/04/01 18:40:52;;;;;;;4.47;1.75;;;;;;;9.58;62.46;97285.09;6214433;23;20066;-86
2022/04/01 18:43:20;;;;;;;5.18;2.30;;;;;;;9.56;62.28;97290.53;6216088;23;20111;-84
2022/04/01 18:45:46;;;;;;;5.78;1.67;;;;;;;9.55;62.38;97294.16;6188048;23;20012;-84
2022/04/01 18:48:12;;;;;;;4.03;1.42;;;;;;;9.53;62.73;97296.19;6205279;23;20023;-83
2022/04/01 18:50:47;;;;;;;2.58;1.55;;;;;;;9.51;61.98;97297.38;6226664;23;20072;-84
2022/04/01 18:53:14;;;;;;;4.00;1.70;;;;;;;9.50;62.83;97295.75;6217982;23;20031;-80
2022/04/01 18:55:40;;;;;;;7.57;1.48;;;;;;;9.51;64.25;97297.38;6186265;23;20008;-81
2022/04/01 18:58:07;;;;;;;4.05;1.83;;;;;;;9.51;64.09;97300.00;6212965;23;20020;-79
2022/04/01 19:00:33;;;;;;;6.68;2.42;;;;;;;9.59;65.31;97311.22;6178241;23;20092;-77
2022/04/01 19:03:24;;;;;;;8.30;1.77;;;;;;;9.63;65.08;97322.19;6154118;23;20019;-76
2022/04/01 19:05:58;;;;;;;2.58;1.60;;;;;;;9.66;65.17;97324.47;6189493;23;20516;-84
2022/04/01 19:08:27;;;;;;;2.25;1.60;;;;;;;9.60;64.65;97323.38;6188049;23;20091;-82
2022/04/01 19:11:29;;;;;;;4.47;1.80;;;;;;;9.57;64.93;97333.47;6183133;23;20013;-84
2022/04/01 19:14:03;;;;;;;7.43;1.85;;;;;;;9.49;65.53;97333.59;6165731;23;20013;-88
2022/04/01 19:16:32;;;;;;;7.43;1.98;;;;;;;9.38;65.55;97345.47;6196989;23;20009;-87